Time;durP1;ratioP1;P1;durP2;ratioP2;P2;SDS_P1;SDS_P2;PMS_P1;PMS_P2;Temp;Humidity;BMP_temperature;BMP_pressure;BME280_temperature;BME280_humidity;BME280_pressure;Samples;Min_cycle;Max_cycle;Signal;HPM_P1;HPM_P2
2022/06/21 00:01:27;;;;;;;5.47;1.65;;;11.10;99.90;;;;;;5040926;28;20079;-69
2022/06/21 00:03:54;;;;;;;4.90;1.50;;;11.10;99.90;;;;;;5057667;28;20063;-70
2022/06/21 00:06:24;;;;;;;4.05;1.80;;;11.20;99.90;;;;;;5059131;28;20059;-70
2022/06/21 00:08:49;;;;;;;4.85;1.38;;;11.20;99.90;;;;;;5078367;28;20056;-70
2022/06/21 00:11:33;;;;;;;3.20;1.70;;;11.20;99.90;;;;;;5066003;28;20040;-69
2022/06/21 00:13:59;;;;;;;12.32;1.88;;;11.20;99.90;;;;;;5081038;28;20498;-70
2022/06/21 00:16:27;;;;;;;4.18;1.80;;;11.20;99.90;;;;;;5081158;28;20080;-69
2022/06/21 00:18:53;;;;;;;3.72;2.03;;;11.20;99.90;;;;;;5099137;28;20475;-70
2022/06/21 00:21:21;;;;;;;3.97;1.73;;;11.20;99.90;;;;;;5080527;28;20084;-69
2022/06/21 00:23:49;;;;;;;7.88;1.98;;;11.30;99.90;;;;;;5080864;28;20109;-70
2022/06/21 00:26:16;;;;;;;4.60;2.03;;;11.40;99.90;;;;;;5076534;28;20106;-69
2022/06/21 00:28:42;;;;;;;4.85;1.50;;;11.40;99.90;;;;;;5078544;28;20338;-70
2022/06/21 00:31:24;;;;;;;5.63;2.17;;;11.50;99.90;;;;;;5078148;28;20044;-70
2022/06/21 00:33:50;;;;;;;4.65;2.30;;;11.40;99.90;;;;;;5060864;28;20088;-70
2022/06/21 00:36:29;;;;;;;4.70;1.33;;;11.30;99.90;;;;;;5060321;28;20076;-70
2022/06/21 00:38:57;;;;;;;2.92;1.60;;;11.30;99.90;;;;;;5060889;28;20161;-69
2022/06/21 00:41:37;;;;;;;3.67;2.30;;;11.20;99.90;;;;;;5060875;28;20048;-70
2022/06/21 00:44:09;;;;;;;2.67;1.48;;;11.10;99.90;;;;;;5078320;28;20048;-70
2022/06/21 00:46:54;;;;;;;4.63;1.95;;;11.00;99.90;;;;;;5072575;28;20048;-69
2022/06/21 00:49:25;;;;;;;5.90;1.80;;;11.00;99.90;;;;;;5080505;28;20039;-69
2022/06/21 00:52:01;;;;;;;3.30;1.48;;;10.90;99.90;;;;;;5081053;28;20055;-70
2022/06/21 00:54:41;;;;;;;5.68;2.25;;;10.90;99.90;;;;;;5098461;28;20515;-70
2022/06/21 00:57:15;;;;;;;5.13;1.73;;;10.80;99.90;;;;;;5080170;28;20139;-70
2022/06/21 00:59:40;;;;;;;;;;;10.90;99.90;;;;;;5081290;28;20094;-71
2022/06/21 01:02:23;;;;;;;4.72;1.48;;;10.80;99.90;;;;;;5079908;28;19967;-69
2022/06/21 01:04:52;;;;;;;6.13;2.07;;;10.70;99.90;;;;;;5080031;28;20044;-70
2022/06/21 01:07:18;;;;;;;5.60;1.73;;;10.70;99.90;;;;;;5080027;28;20055;-70
2022/06/21 01:10:09;;;;;;;3.63;1.60;;;10.70;99.90;;;;;;5079981;28;20101;-70
2022/06/21 01:12:44;;;;;;;2.80;1.40;;;10.70;99.90;;;;;;5085754;28;20098;-70
2022/06/21 01:15:15;;;;;;;3.50;1.75;;;10.60;99.90;;;;;;5075263;28;20041;-70
2022/06/21 01:17:42;;;;;;;5.20;2.25;;;10.60;99.90;;;;;;5076702;28;20041;-69
2022/06/21 01:20:19;;;;;;;3.30;1.30;;;10.60;99.90;;;;;;5060144;28;20329;-70
2022/06/21 01:23:02;;;;;;;4.72;1.80;;;10.60;99.90;;;;;;5077411;28;20059;-69
2022/06/21 01:25:33;;;;;;;3.70;2.03;;;10.70;99.90;;;;;;5059697;28;20490;-70
2022/06/21 01:28:00;;;;;;;2.72;1.50;;;10.60;99.90;;;;;;5077486;28;20053;-69
2022/06/21 01:30:28;;;;;;;3.78;1.50;;;10.50;99.90;;;;;;5077136;28;20440;-69
2022/06/21 01:32:57;;;;;;;4.88;2.10;;;10.50;99.90;;;;;;5075475;28;20043;-70
2022/06/21 01:35:34;;;;;;;4.57;1.73;;;10.60;99.90;;;;;;5097211;28;20518;-69
2022/06/21 01:38:02;;;;;;;8.73;1.98;;;10.60;99.90;;;;;;5062714;28;20063;-70
2022/06/21 01:40:33;;;;;;;10.60;4.57;;;10.60;99.90;;;;;;5079456;28;20121;-70
2022/06/21 01:43:09;;;;;;;6.53;2.35;;;10.60;99.90;;;;;;5079321;28;20048;-70
2022/06/21 01:45:39;;;;;;;4.55;1.83;;;10.50;99.90;;;;;;5075299;28;20468;-69
2022/06/21 01:48:14;;;;;;;4.15;2.35;;;10.50;99.90;;;;;;5068524;28;20044;-69
2022/06/21 01:50:43;;;;;;;5.88;1.80;;;10.40;99.90;;;;;;5076916;28;20041;-69
2022/06/21 01:53:09;;;;;;;4.80;1.92;;;10.40;99.90;;;;;;5077052;28;20044;-69
2022/06/21 01:55:56;;;;;;;6.18;1.92;;;10.40;99.90;;;;;;5058828;28;20137;-70
2022/06/21 01:58:26;;;;;;;4.75;1.88;;;10.30;99.90;;;;;;5042852;28;20044;-70
2022/06/21 02:01:23;;;;;;;3.50;1.85;;;10.30;99.90;;;;;;5041549;28;20052;-69
2022/06/21 02:03:52;;;;;;;4.55;2.10;;;10.20;99.90;;;;;;5053665;28;20144;-69
2022/06/21 02:06:19;;;;;;;4.85;1.58;;;10.20;99.90;;;;;;5076447;28;20048;-70
2022/06/21 02:08:51;;;;;;;4.63;1.85;;;10.10;99.90;;;;;;5059005;28;20116;-70
2022/06/21 02:11:23;;;;;;;3.33;2.05;;;10.10;99.90;;;;;;5076238;28;20108;-70
2022/06/21 02:14:28;;;;;;;6.03;2.80;;;10.10;99.90;;;;;;5076463;28;20048;-69
2022/06/21 02:16:41;;;;;;;7.68;1.75;;;10.10;99.90;;;;;;5058482;28;20131;-69
2022/06/21 02:19:13;;;;;;;5.50;2.65;;;10.10;99.90;;;;;;5076228;28;20040;-70
2022/06/21 02:21:41;;;;;;;3.40;2.13;;;10.00;99.90;;;;;;5042064;28;20083;-70
2022/06/21 02:24:12;;;;;;;4.05;2.20;;;10.10;99.90;;;;;;5076347;28;20131;-69
2022/06/21 02:26:38;;;;;;;3.80;2.20;;;10.10;99.90;;;;;;5062619;28;20468;-70
2022/06/21 02:29:04;;;;;;;4.43;1.98;;;10.10;99.90;;;;;;5057672;28;20048;-69
2022/06/21 02:31:30;;;;;;;6.78;2.60;;;10.10;99.90;;;;;;5058160;28;20186;-70
2022/06/21 02:34:01;;;;;;;6.00;2.17;;;10.10;99.90;;;;;;5058700;28;20065;-70
2022/06/21 02:36:32;;;;;;;4.60;2.28;;;10.10;99.90;;;;;;5058049;28;20504;-69
2022/06/21 02:39:02;;;;;;;3.83;1.98;;;10.10;99.90;;;;;;5058503;28;20082;-70
2022/06/21 02:41:33;;;;;;;6.05;2.03;;;10.10;99.90;;;;;;5075258;28;20044;-70
2022/06/21 02:44:06;;;;;;;5.13;2.50;;;10.00;99.90;;;;;;5057544;28;20041;-69
2022/06/21 02:46:35;;;;;;;;;;;10.00;99.90;;;;;;5058684;28;20040;-70
2022/06/21 02:49:06;;;;;;;4.10;2.78;;;10.00;99.90;;;;;;5075523;28;19921;-70
2022/06/21 02:51:38;;;;;;;5.35;2.70;;;10.00;99.90;;;;;;5075885;28;20401;-69
2022/06/21 02:54:20;;;;;;;3.92;1.80;;;9.90;99.90;;;;;;5075620;28;20090;-70
2022/06/21 02:56:53;;;;;;;5.80;2.35;;;9.90;99.90;;;;;;5048987;28;20063;-69
2022/06/21 02:59:19;;;;;;;6.75;2.25;;;9.90;99.90;;;;;;5038174;28;20041;-70
2022/06/21 03:01:50;;;;;;;4.97;2.10;;;9.80;99.90;;;;;;5038037;28;20056;-69
2022/06/21 03:04:23;;;;;;;5.82;2.42;;;9.80;99.90;;;;;;5038025;28;20045;-70
2022/06/21 03:06:50;;;;;;;6.00;2.53;;;9.80;99.90;;;;;;5038053;28;20115;-69
2022/06/21 03:09:22;;;;;;;5.22;2.08;;;9.80;99.90;;;;;;5037808;28;20048;-70
2022/06/21 03:11:51;;;;;;;4.83;2.23;;;9.80;99.90;;;;;;5037215;28;20041;-70
2022/06/21 03:14:22;;;;;;;6.68;2.70;;;9.70;99.90;;;;;;5055521;28;20370;-70
2022/06/21 03:16:48;;;;;;;5.45;2.65;;;9.70;99.90;;;;;;5037496;28;20045;-69
2022/06/21 03:19:42;;;;;;;7.30;2.40;;;9.70;99.90;;;;;;5037427;28;20037;-70
2022/06/21 03:22:26;;;;;;;6.57;3.53;;;9.70;99.90;;;;;;5055144;28;20056;-69
2022/06/21 03:24:55;;;;;;;4.90;2.08;;;9.60;99.90;;;;;;5037648;28;20045;-70
2022/06/21 03:27:49;;;;;;;4.32;2.05;;;9.60;99.90;;;;;;5054331;28;20101;-70
2022/06/21 03:30:18;;;;;;;10.27;2.30;;;9.70;99.90;;;;;;5057161;28;20044;-70
2022/06/21 03:32:44;;;;;;;6.85;2.40;;;9.60;99.90;;;;;;5057300;28;20053;-69
2022/06/21 03:35:10;;;;;;;3.30;2.10;;;9.60;99.90;;;;;;5057590;28;20428;-70
2022/06/21 03:37:38;;;;;;;5.60;2.60;;;9.60;99.90;;;;;;5057175;28;20506;-70
2022/06/21 03:42:54;;;;;;;3.53;2.00;;;9.60;99.90;;;;;;5057156;28;20057;-70
2022/06/21 03:45:26;;;;;;;6.50;2.13;;;9.60;99.90;;;;;;5074884;28;20094;-70
2022/06/21 03:48:03;;;;;;;7.47;2.40;;;9.60;99.90;;;;;;5056966;28;20040;-69
2022/06/21 03:50:38;;;;;;;5.22;2.30;;;9.70;99.90;;;;;;5057214;28;20048;-69
2022/06/21 03:53:15;;;;;;;5.38;2.20;;;9.60;99.90;;;;;;5057451;28;20056;-69
2022/06/21 03:55:47;;;;;;;6.85;2.28;;;9.60;99.90;;;;;;5057808;28;20077;-70
2022/06/21 03:58:22;;;;;;;2.95;1.92;;;9.60;99.90;;;;;;5061925;28;20055;-67
2022/06/21 04:00:59;;;;;;;9.77;3.10;;;9.70;99.90;;;;;;5096642;28;20043;-68
2022/06/21 04:03:27;;;;;;;4.57;2.28;;;9.70;99.90;;;;;;5069114;28;20055;-70
2022/06/21 04:06:13;;;;;;;5.18;2.38;;;9.70;99.90;;;;;;5063255;28;20082;-69
2022/06/21 04:08:49;;;;;;;4.72;2.15;;;9.70;99.90;;;;;;5083862;28;20139;-70
2022/06/21 04:11:23;;;;;;;6.78;2.72;;;9.80;99.90;;;;;;5083869;28;20087;-69
2022/06/21 04:13:55;;;;;;;6.15;2.97;;;9.80;99.90;;;;;;5083079;28;20037;-70
2022/06/21 04:16:37;;;;;;;5.75;2.70;;;9.80;99.90;;;;;;5065634;28;20076;-70
2022/06/21 04:19:06;;;;;;;9.88;2.75;;;9.90;99.90;;;;;;5064736;28;20126;-69
2022/06/21 04:21:45;;;;;;;4.97;2.42;;;10.00;99.90;;;;;;5070536;28;20407;-69
2022/06/21 04:24:22;;;;;;;5.13;2.70;;;10.00;99.90;;;;;;5056566;28;20048;-67
2022/06/21 04:26:53;;;;;;;6.35;2.50;;;10.10;99.90;;;;;;5074639;28;20060;-68
2022/06/21 04:29:30;;;;;;;9.50;3.25;;;10.20;99.90;;;;;;5074484;28;20136;-69
2022/06/21 04:31:58;;;;;;;5.63;2.80;;;10.30;99.90;;;;;;5056584;28;20059;-69
2022/06/21 04:34:30;;;;;;;5.15;2.83;;;10.40;99.90;;;;;;5056395;28;20052;-69
2022/06/21 04:37:06;;;;;;;4.97;3.00;;;10.60;99.90;;;;;;5056414;28;20448;-69
2022/06/21 04:39:43;;;;;;;8.50;2.85;;;10.70;99.90;;;;;;5056915;28;20049;-70
2022/06/21 04:42:15;;;;;;;5.97;3.22;;;10.90;99.90;;;;;;5056545;28;20048;-69
2022/06/21 04:45:07;;;;;;;6.68;2.40;;;11.10;99.90;;;;;;5073764;28;20041;-69
2022/06/21 04:47:54;;;;;;;6.78;3.13;;;11.40;99.90;;;;;;5073351;28;20044;-69
2022/06/21 04:50:39;;;;;;;5.03;3.03;;;11.60;99.90;;;;;;5074268;28;20132;-70
2022/06/21 04:53:47;;;;;;;8.40;2.92;;;11.80;99.90;;;;;;5058528;28;20048;-70
2022/06/21 04:56:37;;;;;;;4.85;2.53;;;11.90;99.90;;;;;;5071738;28;20052;-69
2022/06/21 04:59:10;;;;;;;5.40;2.28;;;12.00;99.90;;;;;;5060485;28;20469;-67
2022/06/21 05:01:37;;;;;;;6.68;2.95;;;12.20;99.90;;;;;;5077570;28;20050;-69
2022/06/21 05:04:10;;;;;;;5.05;2.63;;;12.20;99.90;;;;;;5063203;28;20059;-69
2022/06/21 05:06:37;;;;;;;4.35;3.00;;;12.40;99.90;;;;;;5060015;28;20051;-70
2022/06/21 05:09:03;;;;;;;3.53;2.42;;;12.50;99.90;;;;;;5060371;28;20067;-70
2022/06/21 05:11:29;;;;;;;5.65;3.15;;;12.70;99.90;;;;;;5077809;28;20383;-70
2022/06/21 05:13:58;;;;;;;8.05;3.80;;;12.70;99.90;;;;;;5077528;28;20040;-69
2022/06/21 05:16:39;;;;;;;7.90;2.58;;;12.70;99.90;;;;;;5077269;28;20422;-70
2022/06/21 05:19:16;;;;;;;5.43;2.97;;;12.80;99.90;;;;;;5059538;28;20040;-70
2022/06/21 05:21:54;;;;;;;4.28;2.55;;;13.10;99.90;;;;;;5074551;28;20052;-70
2022/06/21 05:24:20;;;;;;;4.63;3.10;;;13.50;99.90;;;;;;5063304;28;20059;-69
2022/06/21 05:27:08;;;;;;;6.85;3.38;;;14.90;99.90;;;;;;5064162;28;20048;-70
2022/06/21 05:29:45;;;;;;;5.35;3.20;;;16.70;99.90;;;;;;5080905;28;20064;-71
2022/06/21 05:32:20;;;;;;;6.95;2.30;;;18.40;99.90;;;;;;5064564;28;20388;-72
2022/06/21 05:34:51;;;;;;;4.20;2.25;;;19.50;99.90;;;;;;5060338;28;20349;-71
2022/06/21 05:37:36;;;;;;;4.03;2.28;;;20.30;99.90;;;;;;5065319;28;20051;-72
2022/06/21 05:40:13;;;;;;;6.70;2.00;;;21.30;99.90;;;;;;5076641;28;20107;-71
2022/06/21 05:42:39;;;;;;;4.22;2.42;;;21.90;99.90;;;;;;5076912;28;20115;-71
2022/06/21 05:45:14;;;;;;;4.50;1.95;;;22.50;99.90;;;;;;5081608;28;20060;-70
2022/06/21 05:47:48;;;;;;;4.68;2.08;;;23.10;99.90;;;;;;5066947;28;20040;-71
2022/06/21 05:50:19;;;;;;;6.82;1.92;;;23.80;99.90;;;;;;5059375;28;20427;-71
2022/06/21 05:52:50;;;;;;;2.90;1.50;;;24.50;99.30;;;;;;5059201;28;20495;-73
2022/06/21 05:55:21;;;;;;;3.70;1.90;;;25.00;98.20;;;;;;5059612;28;20047;-74
2022/06/21 05:57:56;;;;;;;3.90;1.80;;;25.50;96.80;;;;;;5090812;28;20052;-72
2022/06/21 06:00:47;;;;;;;3.42;1.40;;;25.60;96.40;;;;;;5093525;28;20044;-74
2022/06/21 06:03:29;;;;;;;4.05;1.70;;;26.00;94.90;;;;;;5062759;28;20500;-74
2022/06/21 06:05:56;;;;;;;2.60;1.40;;;26.40;94.40;;;;;;5058173;28;20064;-73
2022/06/21 06:08:44;;;;;;;3.83;1.67;;;26.00;95.20;;;;;;5076082;28;20113;-73
2022/06/21 06:11:57;;;;;;;3.55;1.42;;;26.30;94.10;;;;;;5071091;28;20059;-73
2022/06/21 06:14:13;;;;;;;3.60;1.20;;;26.50;94.00;;;;;;5057341;28;20126;-72
2022/06/21 06:16:42;;;;;;;4.30;1.35;;;26.70;94.20;;;;;;5058380;28;20291;-73
2022/06/21 06:19:19;;;;;;;4.88;1.40;;;26.20;92.50;;;;;;5095615;28;20456;-73
2022/06/21 06:21:51;;;;;;;3.05;1.20;;;26.60;93.40;;;;;;5079015;28;20112;-73
2022/06/21 06:24:28;;;;;;;7.97;1.63;;;25.70;92.20;;;;;;5091964;28;20078;-71
2022/06/21 06:26:58;;;;;;;2.80;1.10;;;24.80;92.90;;;;;;5080573;28;20127;-72
2022/06/21 06:29:38;;;;;;;4.85;1.80;;;24.00;93.50;;;;;;5078976;28;20483;-72
2022/06/21 06:32:32;;;;;;;3.83;1.40;;;23.30;94.30;;;;;;5058339;28;20074;-72
2022/06/21 06:34:59;;;;;;;4.97;1.75;;;22.30;95.30;;;;;;5078208;28;20051;-72
2022/06/21 06:37:25;;;;;;;5.10;2.00;;;21.60;95.70;;;;;;5076327;28;20048;-71
2022/06/21 06:39:51;;;;;;;5.22;1.80;;;21.10;96.50;;;;;;5059005;28;20072;-72
2022/06/21 06:42:21;;;;;;;3.28;1.33;;;21.30;97.80;;;;;;5057684;28;20083;-71
2022/06/21 06:44:56;;;;;;;6.63;1.70;;;22.60;96.00;;;;;;5072345;28;20535;-71
2022/06/21 06:47:39;;;;;;;6.07;1.13;;;23.90;94.90;;;;;;5093375;28;20096;-72
2022/06/21 06:50:16;;;;;;;7.78;1.42;;;24.90;94.50;;;;;;5074871;28;20071;-72
2022/06/21 06:52:58;;;;;;;3.65;1.48;;;26.10;93.70;;;;;;5058066;28;20476;-71
2022/06/21 06:55:29;;;;;;;2.30;1.05;;;26.80;92.70;;;;;;5075317;28;20052;-71
2022/06/21 06:58:43;;;;;;;3.88;1.45;;;27.00;91.10;;;;;;5067783;28;20103;-71
2022/06/21 07:01:25;;;;;;;3.38;1.50;;;27.70;91.90;;;;;;5069190;28;20127;-69
2022/06/21 07:04:01;;;;;;;2.55;1.38;;;28.20;90.70;;;;;;5078141;28;20486;-69
2022/06/21 07:06:52;;;;;;;3.17;1.42;;;28.10;89.10;;;;;;5070744;28;20459;-68
2022/06/21 07:09:30;;;;;;;3.28;1.33;;;28.30;91.00;;;;;;5074013;28;20037;-70
2022/06/21 07:12:06;;;;;;;5.43;1.38;;;28.70;89.30;;;;;;5061843;28;20113;-70
2022/06/21 07:14:33;;;;;;;3.88;1.13;;;28.70;87.30;;;;;;5078451;28;20090;-71
2022/06/21 07:17:13;;;;;;;4.30;1.10;;;28.10;89.30;;;;;;5069543;28;20105;-69
2022/06/21 07:19:39;;;;;;;3.83;1.00;;;27.50;90.10;;;;;;5057823;28;20040;-71
2022/06/21 07:22:18;;;;;;;3.60;1.00;;;26.50;89.20;;;;;;5075032;28;20436;-70
2022/06/21 07:25:01;;;;;;;4.03;1.05;;;25.50;90.00;;;;;;5063650;28;20052;-69
2022/06/21 07:27:28;;;;;;;4.40;1.27;;;24.60;91.20;;;;;;5072895;28;20044;-70
2022/06/21 07:30:07;;;;;;;4.95;1.45;;;24.50;91.70;;;;;;5058669;28;20040;-69
2022/06/21 07:32:48;;;;;;;3.80;1.25;;;25.40;90.50;;;;;;5056780;28;20052;-70
2022/06/21 07:35:28;;;;;;;2.40;1.00;;;26.20;90.80;;;;;;5074208;28;20364;-70
2022/06/21 07:38:00;;;;;;;2.92;1.17;;;26.90;90.10;;;;;;5066592;28;20457;-70
2022/06/21 07:40:35;;;;;;;2.88;1.27;;;26.90;90.00;;;;;;5077469;28;20048;-70
2022/06/21 07:43:06;;;;;;;2.20;1.05;;;27.10;89.10;;;;;;5061814;28;20093;-70
2022/06/21 07:45:56;;;;;;;2.92;1.05;;;27.20;89.50;;;;;;5074446;28;20452;-70
2022/06/21 07:48:25;;;;;;;3.33;1.10;;;26.70;87.40;;;;;;5080303;28;20127;-70
2022/06/21 07:50:55;;;;;;;3.38;1.10;;;25.60;89.50;;;;;;5090284;28;20104;-69
2022/06/21 07:53:39;;;;;;;2.80;1.40;;;25.00;90.20;;;;;;5071122;28;20124;-70
2022/06/21 07:56:28;;;;;;;2.45;0.90;;;24.90;91.20;;;;;;5056529;28;20365;-70
2022/06/21 07:59:08;;;;;;;3.58;1.33;;;25.50;91.80;;;;;;5058325;28;20072;-71
2022/06/21 08:07:20;;;;;;;3.20;1.50;;;27.40;88.90;;;;;;5069062;28;20063;-69
2022/06/21 08:10:27;;;;;;;7.95;1.30;;;27.70;89.20;;;;;;5090598;28;20361;-70
2022/06/21 08:12:55;;;;;;;6.40;1.63;;;28.70;87.20;;;;;;5087877;28;20032;-70
2022/06/21 08:15:26;;;;;;;3.28;1.10;;;28.20;87.00;;;;;;5088645;28;20112;-69
2022/06/21 08:18:21;;;;;;;3.80;1.15;;;28.20;88.70;;;;;;5063441;28;20035;-71
2022/06/21 08:20:57;;;;;;;3.38;1.08;;;28.60;89.20;;;;;;5079121;28;20050;-70
2022/06/21 08:23:32;;;;;;;2.72;0.95;;;28.70;87.80;;;;;;5090974;28;20051;-71
2022/06/21 08:26:05;;;;;;;3.97;1.02;;;27.90;86.20;;;;;;5065377;28;20045;-72
2022/06/21 08:28:37;;;;;;;3.70;1.08;;;26.60;87.50;;;;;;5077247;28;20090;-71
2022/06/21 08:31:13;;;;;;;7.67;1.13;;;26.50;89.50;;;;;;5078407;28;20083;-71
2022/06/21 08:33:52;;;;;;;3.42;1.13;;;26.40;88.80;;;;;;5077721;28;20040;-72
2022/06/21 08:36:30;;;;;;;4.70;1.15;;;27.00;89.00;;;;;;5060111;28;20105;-72
2022/06/21 08:39:10;;;;;;;4.28;0.80;;;27.50;87.60;;;;;;5060383;28;20101;-72
2022/06/21 08:41:55;;;;;;;3.33;0.98;;;27.80;86.50;;;;;;5078230;28;20060;-72
2022/06/21 08:44:41;;;;;;;3.80;1.00;;;27.80;88.10;;;;;;5069002;28;20116;-72
2022/06/21 08:47:31;;;;;;;4.18;0.95;;;27.50;84.70;;;;;;5080219;28;20047;-72
2022/06/21 08:50:32;;;;;;;2.30;0.75;;;26.90;86.60;;;;;;5080586;28;20076;-72
2022/06/21 08:53:19;;;;;;;2.03;0.73;;;27.30;87.00;;;;;;5065757;28;20087;-69
2022/06/21 08:56:02;;;;;;;2.60;0.93;;;27.80;87.30;;;;;;5080395;28;20048;-70
2022/06/21 08:58:43;;;;;;;4.60;1.50;;;28.50;86.70;;;;;;5094771;28;20053;-69
2022/06/21 09:01:29;;;;;;;2.10;1.00;;;28.20;84.50;;;;;;5078217;28;20357;-69
2022/06/21 09:04:00;;;;;;;3.47;1.45;;;27.80;83.80;;;;;;5060185;28;20110;-69
2022/06/21 09:06:58;;;;;;;3.33;1.30;;;27.20;85.20;;;;;;5077714;28;20349;-69
2022/06/21 09:10:02;;;;;;;3.40;1.02;;;27.10;85.20;;;;;;5044477;28;20290;-70
2022/06/21 09:12:59;;;;;;;3.15;1.02;;;26.80;85.70;;;;;;5077515;28;20101;-70
2022/06/21 09:15:40;;;;;;;1.88;0.90;;;26.90;84.60;;;;;;5077399;28;20055;-69
2022/06/21 09:18:30;;;;;;;3.80;1.02;;;27.10;87.20;;;;;;5077742;28;20036;-69
2022/06/21 09:21:25;;;;;;;1.63;0.65;;;27.00;85.90;;;;;;5077198;28;20528;-68
2022/06/21 09:23:59;;;;;;;4.28;0.93;;;27.00;86.70;;;;;;5059927;28;20059;-69
2022/06/21 09:26:33;;;;;;;3.20;0.70;;;27.00;88.10;;;;;;5059618;28;20048;-69
2022/06/21 09:29:21;;;;;;;1.90;0.70;;;27.00;86.80;;;;;;5068107;28;20052;-69
2022/06/21 09:32:29;;;;;;;1.45;0.60;;;27.00;86.90;;;;;;5059941;28;20040;-69
2022/06/21 09:35:26;;;;;;;4.68;0.80;;;26.70;85.10;;;;;;5059216;28;20049;-69
2022/06/21 09:38:06;;;;;;;4.10;1.33;;;27.00;87.30;;;;;;5059253;28;20113;-69
2022/06/21 09:40:44;;;;;;;1.95;0.90;;;26.50;83.70;;;;;;5077285;28;20110;-69
2022/06/21 09:43:21;;;;;;;4.28;1.10;;;26.30;84.10;;;;;;5076514;28;20129;-68
2022/06/21 09:46:21;;;;;;;2.95;1.20;;;26.30;86.50;;;;;;5059328;28;20050;-68
2022/06/21 09:49:09;;;;;;;4.40;1.00;;;26.40;86.60;;;;;;5077039;28;20044;-69
2022/06/21 09:51:34;;;;;;;2.05;0.65;;;26.60;84.60;;;;;;5059194;28;20057;-68
2022/06/21 09:54:24;;;;;;;3.10;1.08;;;26.10;84.70;;;;;;5059071;28;20045;-68
2022/06/21 09:57:24;;;;;;;2.97;1.00;;;26.00;83.20;;;;;;5076300;28;20476;-68
2022/06/21 10:00:05;;;;;;;2.70;0.80;;;25.70;84.00;;;;;;5068540;28;20471;-69
2022/06/21 10:02:56;;;;;;;3.22;0.90;;;24.90;86.80;;;;;;5079235;28;20040;-68
2022/06/21 10:05:48;;;;;;;1.08;0.65;;;25.10;85.30;;;;;;5097126;28;20108;-71
2022/06/21 10:08:24;;;;;;;4.65;1.10;;;24.70;86.40;;;;;;5079467;28;20171;-71
2022/06/21 10:11:24;;;;;;;2.47;0.90;;;24.00;88.70;;;;;;5078965;28;20043;-71
2022/06/21 10:14:08;;;;;;;2.47;1.05;;;24.00;90.40;;;;;;5083933;28;20357;-70
2022/06/21 10:17:05;;;;;;;4.15;1.33;;;24.60;90.10;;;;;;5058897;28;20461;-71
2022/06/21 10:19:41;;;;;;;2.40;1.30;;;24.50;88.60;;;;;;5059281;28;20048;-69
2022/06/21 10:22:23;;;;;;;4.85;0.90;;;24.50;87.40;;;;;;5058526;28;20055;-69
2022/06/21 10:25:08;;;;;;;2.37;0.90;;;25.00;88.20;;;;;;5076163;28;20101;-71
2022/06/21 10:27:58;;;;;;;2.78;0.80;;;25.20;87.20;;;;;;5079831;28;20052;-71
2022/06/21 10:30:39;;;;;;;4.00;0.70;;;25.60;87.20;;;;;;5076075;28;20338;-71
2022/06/21 10:33:08;;;;;;;3.47;1.13;;;25.60;84.40;;;;;;5058812;28;20052;-71
2022/06/21 10:35:47;;;;;;;1.10;0.70;;;25.30;82.30;;;;;;5058080;28;20464;-71
2022/06/21 10:38:50;;;;;;;2.10;0.68;;;25.00;79.30;;;;;;5058585;28;20144;-71
2022/06/21 10:44:55;;;;;;;4.97;1.23;;;24.50;85.30;;;;;;5076402;28;20044;-71
2022/06/21 10:47:56;;;;;;;2.13;1.05;;;24.00;86.70;;;;;;5096214;28;20059;-71
2022/06/21 10:50:43;;;;;;;1.70;0.75;;;23.70;86.20;;;;;;5056911;28;20048;-71
2022/06/21 10:53:26;;;;;;;1.77;0.80;;;23.60;87.10;;;;;;5078284;28;20472;-71
2022/06/21 10:59:17;;;;;;;2.30;0.60;;;23.50;86.50;;;;;;5030815;28;20114;-71
2022/06/21 11:02:03;;;;;;;1.38;0.63;;;23.50;87.70;;;;;;5095677;28;20074;-71
2022/06/21 11:04:46;;;;;;;1.42;0.80;;;23.90;86.70;;;;;;5095693;28;20059;-72
2022/06/21 11:07:17;;;;;;;3.28;0.68;;;24.20;84.00;;;;;;5095692;28;20036;-71
2022/06/21 11:09:53;;;;;;;1.80;0.88;;;24.30;85.70;;;;;;5078172;28;20059;-71
2022/06/21 11:12:54;;;;;;;1.75;0.85;;;24.50;85.50;;;;;;5095416;28;20040;-71
2022/06/21 11:15:28;;;;;;;1.83;0.75;;;24.80;85.40;;;;;;5064875;28;20040;-71
2022/06/21 11:18:28;;;;;;;3.30;1.17;;;24.70;83.50;;;;;;5057878;28;20076;-72
2022/06/21 11:21:26;;;;;;;2.17;0.82;;;24.30;83.40;;;;;;5058019;28;20067;-72
2022/06/21 11:24:17;;;;;;;1.48;0.70;;;24.00;84.70;;;;;;5057527;28;20040;-71
2022/06/21 11:26:56;;;;;;;2.38;1.00;;;24.30;87.30;;;;;;5057376;28;20082;-71
2022/06/21 11:29:41;;;;;;;4.47;1.20;;;24.70;85.50;;;;;;5074488;28;20040;-71
2022/06/21 11:32:28;;;;;;;1.58;0.80;;;24.90;83.70;;;;;;5057062;28;20044;-71
2022/06/21 11:34:59;;;;;;;3.70;1.20;;;24.90;85.20;;;;;;5057828;28;20072;-71
2022/06/21 11:37:40;;;;;;;4.05;1.02;;;24.80;85.30;;;;;;5057511;28;20159;-71
2022/06/21 11:40:28;;;;;;;1.85;0.77;;;24.40;83.30;;;;;;5057054;28;20048;-71
2022/06/21 11:42:57;;;;;;;1.95;0.90;;;24.80;85.70;;;;;;5061180;28;20070;-71
2022/06/21 11:45:41;;;;;;;3.67;0.93;;;24.80;85.50;;;;;;5077373;28;20460;-71
2022/06/21 11:48:15;;;;;;;1.23;0.80;;;25.30;85.90;;;;;;5077846;28;20047;-71
2022/06/21 11:50:43;;;;;;;0.90;0.65;;;25.40;83.00;;;;;;5077477;28;20052;-71
2022/06/21 11:53:46;;;;;;;4.55;0.95;;;25.60;83.70;;;;;;5077233;28;20043;-71
2022/06/21 11:56:23;;;;;;;0.93;0.70;;;25.70;83.50;;;;;;5094138;28;20099;-71
2022/06/21 11:59:02;;;;;;;1.88;0.80;;;25.90;84.70;;;;;;5060211;28;20055;-71
2022/06/21 12:01:51;;;;;;;2.03;0.82;;;25.90;83.80;;;;;;5077885;28;20079;-71
2022/06/21 12:04:23;;;;;;;2.90;0.80;;;25.30;81.30;;;;;;5099036;28;20044;-71
2022/06/21 12:06:54;;;;;;;2.10;0.95;;;25.10;81.90;;;;;;5099227;28;20472;-71
2022/06/21 12:09:37;;;;;;;3.25;0.60;;;24.80;83.30;;;;;;5081314;28;20119;-71
2022/06/21 12:12:30;;;;;;;2.13;0.80;;;24.90;84.10;;;;;;5098595;28;20080;-71
2022/06/21 12:15:06;;;;;;;1.63;0.85;;;24.80;81.60;;;;;;5060681;28;20052;-72
2022/06/21 12:17:35;;;;;;;4.05;0.88;;;25.00;85.90;;;;;;5061249;28;20079;-71
2022/06/21 12:20:09;;;;;;;1.33;0.65;;;25.30;84.90;;;;;;5078752;28;20121;-71
2022/06/21 12:22:44;;;;;;;1.42;0.68;;;25.40;84.40;;;;;;5078817;28;20048;-71
2022/06/21 12:25:16;;;;;;;1.60;0.80;;;25.40;84.30;;;;;;5061068;28;20466;-71
2022/06/21 12:27:42;;;;;;;1.42;0.85;;;25.60;82.60;;;;;;5085894;28;20048;-71
2022/06/21 12:30:25;;;;;;;6.93;0.98;;;25.50;85.20;;;;;;5098769;28;20036;-71
2022/06/21 12:32:59;;;;;;;18.20;1.10;;;25.80;85.40;;;;;;5080730;28;20048;-71
2022/06/21 12:36:14;;;;;;;2.75;0.85;;;25.90;82.70;;;;;;5081332;28;20098;-71
2022/06/21 12:38:47;;;;;;;2.13;0.68;;;26.00;82.00;;;;;;5080529;28;20047;-71
2022/06/21 12:41:34;;;;;;;2.47;0.95;;;25.80;82.80;;;;;;5080898;28;20516;-71
2022/06/21 12:44:27;;;;;;;3.40;0.70;;;25.80;80.40;;;;;;5060307;28;20051;-71
2022/06/21 12:47:06;;;;;;;1.95;0.80;;;25.90;83.70;;;;;;5040412;28;20495;-71
2022/06/21 12:49:59;;;;;;;3.10;0.90;;;25.90;82.40;;;;;;5078404;28;20048;-71
2022/06/21 12:52:41;;;;;;;1.88;0.73;;;26.10;79.80;;;;;;5060064;28;20049;-71
2022/06/21 12:55:22;;;;;;;2.58;0.77;;;26.00;81.10;;;;;;5060499;28;20044;-71
2022/06/21 12:57:56;;;;;;;2.15;0.73;;;25.50;80.70;;;;;;5045548;28;20053;-71
2022/06/21 13:00:45;;;;;;;1.65;1.00;;;25.30;80.20;;;;;;5055646;28;20048;-71
2022/06/21 13:03:52;;;;;;;2.72;0.60;;;25.20;81.50;;;;;;5057719;28;20040;-70
2022/06/21 13:06:24;;;;;;;3.47;0.70;;;25.10;81.90;;;;;;5040826;28;20048;-71
2022/06/21 13:09:33;;;;;;;1.40;0.73;;;24.60;80.30;;;;;;5057726;28;20053;-71
2022/06/21 13:12:10;;;;;;;1.83;0.75;;;24.30;84.30;;;;;;4997185;28;20061;-71
2022/06/21 13:14:54;;;;;;;3.90;1.00;;;24.00;81.90;;;;;;5059060;28;20377;-71
2022/06/21 13:17:54;;;;;;;1.17;0.70;;;23.90;82.40;;;;;;5060014;28;20373;-71
2022/06/21 13:20:20;;;;;;;3.00;1.13;;;23.80;83.80;;;;;;5077309;28;20461;-70
2022/06/21 13:23:05;;;;;;;2.03;0.90;;;23.80;82.50;;;;;;5060374;28;20075;-70
2022/06/21 13:25:53;;;;;;;5.88;0.85;;;23.90;83.70;;;;;;5060170;28;20110;-70
2022/06/21 13:28:36;;;;;;;3.53;1.30;;;24.00;83.80;;;;;;5043422;28;20049;-71
2022/06/21 13:31:09;;;;;;;2.55;0.70;;;23.90;83.40;;;;;;5040043;28;20198;-71
2022/06/21 13:33:34;;;;;;;3.55;1.00;;;24.00;84.50;;;;;;5039971;28;20060;-71
2022/06/21 13:36:06;;;;;;;2.28;0.95;;;24.10;83.90;;;;;;5039698;28;20461;-71
2022/06/21 13:38:54;;;;;;;1.20;0.80;;;24.50;84.80;;;;;;5039647;28;20060;-71
2022/06/21 13:44:23;;;;;;;1.42;0.65;;;25.60;83.90;;;;;;5076817;28;20053;-70
2022/06/21 13:46:59;;;;;;;3.53;0.70;;;25.60;82.50;;;;;;5059070;28;20095;-71
2022/06/21 13:49:30;;;;;;;5.00;0.90;;;26.30;84.60;;;;;;5059306;28;20433;-71
2022/06/21 13:52:14;;;;;;;1.23;0.70;;;26.30;80.40;;;;;;5076774;28;20427;-71
2022/06/21 13:55:15;;;;;;;1.83;0.70;;;26.20;79.40;;;;;;5059189;28;20044;-71
2022/06/21 13:58:26;;;;;;;3.58;1.17;;;25.80;80.40;;;;;;5059092;28;20056;-71
2022/06/21 14:00:59;;;;;;;1.67;0.60;;;25.70;80.80;;;;;;5076955;28;20048;-71
2022/06/21 14:03:47;;;;;;;5.35;1.42;;;25.70;82.20;;;;;;5076574;28;20356;-71